sensor_id;sensor_type;location;lat;lon;timestamp;P1;durP1;ratioP1;P2;durP2;ratioP2
69837;SDS011;57135;51.992;4.476;2022-11-10T00:00:40;9.83;;;6.68;;
69837;SDS011;57135;51.992;4.476;2022-11-10T00:03:06;9.79;;;6.70;;
69837;SDS011;57135;51.992;4.476;2022-11-10T00:05:34;9.62;;;6.69;;
69837;SDS011;57135;51.992;4.476;2022-11-10T00:08:02;9.76;;;6.72;;
69837;SDS011;57135;51.992;4.476;2022-11-10T00:10:29;10.07;;;6.93;;
69837;SDS011;57135;51.992;4.476;2022-11-10T00:12:58;10.43;;;7.15;;
69837;SDS011;57135;51.992;4.476;2022-11-10T00:15:24;8.89;;;6.37;;
69837;SDS011;57135;51.992;4.476;2022-11-10T00:18:08;9.12;;;6.55;;
69837;SDS011;57135;51.992;4.476;2022-11-10T00:20:34;9.55;;;6.67;;
69837;SDS011;57135;51.992;4.476;2022-11-10T00:22:59;9.59;;;6.86;;
69837;SDS011;57135;51.992;4.476;2022-11-10T00:25:25;9.05;;;6.58;;
69837;SDS011;57135;51.992;4.476;2022-11-10T00:27:51;8.64;;;6.25;;
69837;SDS011;57135;51.992;4.476;2022-11-10T00:30:16;9.13;;;6.52;;
69837;SDS011;57135;51.992;4.476;2022-11-10T00:32:42;8.28;;;5.98;;
69837;SDS011;57135;51.992;4.476;2022-11-10T00:35:08;8.72;;;6.38;;
69837;SDS011;57135;51.992;4.476;2022-11-10T00:37:33;9.60;;;6.90;;
69837;SDS011;57135;51.992;4.476;2022-11-10T00:39:58;9.68;;;6.90;;
69837;SDS011;57135;51.992;4.476;2022-11-10T00:42:24;9.93;;;6.94;;
69837;SDS011;57135;51.992;4.476;2022-11-10T00:44:49;9.51;;;6.73;;
69837;SDS011;57135;51.992;4.476;2022-11-10T00:47:15;8.77;;;6.37;;
69837;SDS011;57135;51.992;4.476;2022-11-10T00:49:40;8.68;;;6.36;;
69837;SDS011;57135;51.992;4.476;2022-11-10T00:52:06;9.52;;;6.84;;
69837;SDS011;57135;51.992;4.476;2022-11-10T00:54:31;9.75;;;6.82;;
69837;SDS011;57135;51.992;4.476;2022-11-10T00:56:57;9.02;;;6.41;;
69837;SDS011;57135;51.992;4.476;2022-11-10T00:59:22;9.08;;;6.44;;
69837;SDS011;57135;51.992;4.476;2022-11-10T01:01:48;10.08;;;7.11;;
69837;SDS011;57135;51.992;4.476;2022-11-10T01:04:13;9.64;;;6.88;;
69837;SDS011;57135;51.992;4.476;2022-11-10T01:06:38;9.05;;;6.45;;
69837;SDS011;57135;51.992;4.476;2022-11-10T01:09:04;8.52;;;6.13;;
69837;SDS011;57135;51.992;4.476;2022-11-10T01:11:29;9.92;;;6.96;;
69837;SDS011;57135;51.992;4.476;2022-11-10T01:13:55;10.30;;;7.13;;
69837;SDS011;57135;51.992;4.476;2022-11-10T01:16:22;10.16;;;7.02;;
69837;SDS011;57135;51.992;4.476;2022-11-10T01:18:51;9.83;;;6.85;;
69837;SDS011;57135;51.992;4.476;2022-11-10T01:21:19;9.57;;;6.71;;
69837;SDS011;57135;51.992;4.476;2022-11-10T01:23:45;10.30;;;7.13;;
69837;SDS011;57135;51.992;4.476;2022-11-10T01:26:11;9.89;;;6.93;;
69837;SDS011;57135;51.992;4.476;2022-11-10T01:28:38;9.01;;;6.46;;
69837;SDS011;57135;51.992;4.476;2022-11-10T01:31:06;10.22;;;7.20;;
69837;SDS011;57135;51.992;4.476;2022-11-10T01:33:34;9.67;;;6.73;;
69837;SDS011;57135;51.992;4.476;2022-11-10T01:36:00;10.34;;;7.14;;
69837;SDS011;57135;51.992;4.476;2022-11-10T01:38:26;10.75;;;7.42;;
69837;SDS011;57135;51.992;4.476;2022-11-10T01:40:53;11.26;;;7.64;;
69837;SDS011;57135;51.992;4.476;2022-11-10T01:43:18;10.10;;;7.06;;
69837;SDS011;57135;51.992;4.476;2022-11-10T01:45:51;10.40;;;7.20;;
69837;SDS011;57135;51.992;4.476;2022-11-10T01:53:55;10.04;;;6.93;;
69837;SDS011;57135;51.992;4.476;2022-11-10T01:56:24;11.32;;;7.70;;
69837;SDS011;57135;51.992;4.476;2022-11-10T01:58:55;11.60;;;7.89;;
69837;SDS011;57135;51.992;4.476;2022-11-10T02:01:23;10.57;;;7.20;;
69837;SDS011;57135;51.992;4.476;2022-11-10T02:03:56;11.30;;;7.62;;
69837;SDS011;57135;51.992;4.476;2022-11-10T02:06:25;11.07;;;7.51;;
69837;SDS011;57135;51.992;4.476;2022-11-10T02:08:52;10.85;;;7.27;;
69837;SDS011;57135;51.992;4.476;2022-11-10T02:11:19;10.92;;;7.30;;
69837;SDS011;57135;51.992;4.476;2022-11-10T02:13:45;11.08;;;7.38;;
69837;SDS011;57135;51.992;4.476;2022-11-10T02:16:11;10.28;;;6.77;;
69837;SDS011;57135;51.992;4.476;2022-11-10T02:18:37;9.25;;;6.24;;
69837;SDS011;57135;51.992;4.476;2022-11-10T02:21:03;10.17;;;6.77;;
69837;SDS011;57135;51.992;4.476;2022-11-10T02:25:56;9.86;;;6.60;;
69837;SDS011;57135;51.992;4.476;2022-11-10T02:28:22;9.23;;;6.17;;
69837;SDS011;57135;51.992;4.476;2022-11-10T02:30:49;10.84;;;7.24;;
69837;SDS011;57135;51.992;4.476;2022-11-10T02:33:15;9.45;;;6.36;;
69837;SDS011;57135;51.992;4.476;2022-11-10T02:35:43;9.47;;;6.46;;
69837;SDS011;57135;51.992;4.476;2022-11-10T02:38:10;9.53;;;6.47;;
69837;SDS011;57135;51.992;4.476;2022-11-10T02:40:35;10.56;;;7.07;;
69837;SDS011;57135;51.992;4.476;2022-11-10T02:43:02;9.52;;;6.46;;
69837;SDS011;57135;51.992;4.476;2022-11-10T02:45:31;9.43;;;6.46;;
69837;SDS011;57135;51.992;4.476;2022-11-10T02:47:56;9.66;;;6.57;;
69837;SDS011;57135;51.992;4.476;2022-11-10T02:50:22;10.94;;;7.20;;
69837;SDS011;57135;51.992;4.476;2022-11-10T02:52:47;11.71;;;7.59;;
69837;SDS011;57135;51.992;4.476;2022-11-10T02:55:13;11.06;;;7.25;;
69837;SDS011;57135;51.992;4.476;2022-11-10T02:57:38;10.12;;;6.66;;
69837;SDS011;57135;51.992;4.476;2022-11-10T03:00:04;9.63;;;6.43;;
69837;SDS011;57135;51.992;4.476;2022-11-10T03:02:31;9.16;;;6.13;;
69837;SDS011;57135;51.992;4.476;2022-11-10T03:04:57;10.14;;;6.70;;
69837;SDS011;57135;51.992;4.476;2022-11-10T03:07:22;9.73;;;6.41;;
69837;SDS011;57135;51.992;4.476;2022-11-10T03:09:47;9.68;;;6.38;;
69837;SDS011;57135;51.992;4.476;2022-11-10T03:12:13;10.48;;;6.80;;
69837;SDS011;57135;51.992;4.476;2022-11-10T03:14:38;11.30;;;7.29;;
69837;SDS011;57135;51.992;4.476;2022-11-10T03:17:04;10.66;;;6.82;;
69837;SDS011;57135;51.992;4.476;2022-11-10T03:19:29;10.61;;;6.79;;
69837;SDS011;57135;51.992;4.476;2022-11-10T03:21:55;11.59;;;7.24;;
69837;SDS011;57135;51.992;4.476;2022-11-10T03:24:20;12.04;;;7.52;;
69837;SDS011;57135;51.992;4.476;2022-11-10T03:26:46;10.16;;;6.55;;
69837;SDS011;57135;51.992;4.476;2022-11-10T03:29:11;9.78;;;6.34;;
69837;SDS011;57135;51.992;4.476;2022-11-10T03:31:37;10.39;;;6.64;;
69837;SDS011;57135;51.992;4.476;2022-11-10T03:34:02;11.15;;;7.05;;
69837;SDS011;57135;51.992;4.476;2022-11-10T03:36:27;11.81;;;7.44;;
69837;SDS011;57135;51.992;4.476;2022-11-10T03:38:53;12.18;;;7.60;;
69837;SDS011;57135;51.992;4.476;2022-11-10T03:41:18;11.47;;;7.26;;
69837;SDS011;57135;51.992;4.476;2022-11-10T03:43:44;11.21;;;7.28;;
69837;SDS011;57135;51.992;4.476;2022-11-10T03:46:09;11.57;;;7.43;;
69837;SDS011;57135;51.992;4.476;2022-11-10T03:48:35;10.59;;;6.83;;
69837;SDS011;57135;51.992;4.476;2022-11-10T03:51:00;11.02;;;7.10;;
69837;SDS011;57135;51.992;4.476;2022-11-10T03:53:26;11.41;;;7.37;;
69837;SDS011;57135;51.992;4.476;2022-11-10T03:55:51;11.21;;;7.18;;
69837;SDS011;57135;51.992;4.476;2022-11-10T03:58:16;10.26;;;6.74;;
69837;SDS011;57135;51.992;4.476;2022-11-10T04:00:42;10.21;;;6.76;;
69837;SDS011;57135;51.992;4.476;2022-11-10T04:03:07;10.32;;;6.87;;
69837;SDS011;57135;51.992;4.476;2022-11-10T04:05:33;11.04;;;7.37;;
69837;SDS011;57135;51.992;4.476;2022-11-10T04:08:16;10.57;;;7.01;;
69837;SDS011;57135;51.992;4.476;2022-11-10T04:11:01;11.20;;;7.24;;
69837;SDS011;57135;51.992;4.476;2022-11-10T04:13:27;12.02;;;7.73;;
69837;SDS011;57135;51.992;4.476;2022-11-10T04:16:11;11.95;;;7.81;;
69837;SDS011;57135;51.992;4.476;2022-11-10T04:18:37;11.00;;;7.32;;
69837;SDS011;57135;51.992;4.476;2022-11-10T04:21:03;11.06;;;7.37;;
69837;SDS011;57135;51.992;4.476;2022-11-10T04:23:30;10.59;;;7.27;;
69837;SDS011;57135;51.992;4.476;2022-11-10T04:26:07;10.96;;;7.52;;
69837;SDS011;57135;51.992;4.476;2022-11-10T04:28:53;9.80;;;6.90;;
69837;SDS011;57135;51.992;4.476;2022-11-10T04:31:26;11.51;;;7.94;;
69837;SDS011;57135;51.992;4.476;2022-11-10T04:33:54;11.14;;;7.67;;
69837;SDS011;57135;51.992;4.476;2022-11-10T04:36:24;9.68;;;6.86;;
69837;SDS011;57135;51.992;4.476;2022-11-10T04:38:51;10.13;;;7.13;;
69837;SDS011;57135;51.992;4.476;2022-11-10T04:41:18;10.68;;;7.54;;
69837;SDS011;57135;51.992;4.476;2022-11-10T04:43:43;9.57;;;6.90;;
69837;SDS011;57135;51.992;4.476;2022-11-10T04:48:51;9.24;;;6.74;;
69837;SDS011;57135;51.992;4.476;2022-11-10T04:51:18;10.10;;;7.31;;
69837;SDS011;57135;51.992;4.476;2022-11-10T04:53:45;8.90;;;6.73;;
69837;SDS011;57135;51.992;4.476;2022-11-10T04:56:14;9.71;;;7.23;;
69837;SDS011;57135;51.992;4.476;2022-11-10T04:58:41;10.39;;;7.71;;
69837;SDS011;57135;51.992;4.476;2022-11-10T05:01:09;10.42;;;7.78;;
69837;SDS011;57135;51.992;4.476;2022-11-10T05:03:38;9.67;;;7.34;;
69837;SDS011;57135;51.992;4.476;2022-11-10T05:06:04;9.29;;;7.20;;
69837;SDS011;57135;51.992;4.476;2022-11-10T05:08:30;8.65;;;6.77;;
69837;SDS011;57135;51.992;4.476;2022-11-10T05:10:55;8.91;;;6.89;;
69837;SDS011;57135;51.992;4.476;2022-11-10T05:13:21;8.75;;;6.86;;
69837;SDS011;57135;51.992;4.476;2022-11-10T05:15:46;8.72;;;6.89;;
69837;SDS011;57135;51.992;4.476;2022-11-10T05:18:12;9.15;;;6.94;;
69837;SDS011;57135;51.992;4.476;2022-11-10T05:20:37;9.38;;;7.10;;
69837;SDS011;57135;51.992;4.476;2022-11-10T05:23:03;9.46;;;7.18;;
69837;SDS011;57135;51.992;4.476;2022-11-10T05:25:46;9.89;;;7.19;;
69837;SDS011;57135;51.992;4.476;2022-11-10T05:28:12;9.68;;;7.12;;
69837;SDS011;57135;51.992;4.476;2022-11-10T05:30:38;9.68;;;7.07;;
69837;SDS011;57135;51.992;4.476;2022-11-10T05:33:04;9.53;;;7.01;;
69837;SDS011;57135;51.992;4.476;2022-11-10T05:35:30;8.39;;;6.30;;
69837;SDS011;57135;51.992;4.476;2022-11-10T05:37:56;8.80;;;6.66;;
69837;SDS011;57135;51.992;4.476;2022-11-10T05:40:22;9.18;;;6.89;;
69837;SDS011;57135;51.992;4.476;2022-11-10T05:42:48;8.94;;;6.77;;
69837;SDS011;57135;51.992;4.476;2022-11-10T05:45:19;8.86;;;6.70;;
69837;SDS011;57135;51.992;4.476;2022-11-10T05:47:46;9.33;;;6.91;;
69837;SDS011;57135;51.992;4.476;2022-11-10T05:50:11;9.21;;;6.65;;
69837;SDS011;57135;51.992;4.476;2022-11-10T05:52:44;8.83;;;6.52;;
69837;SDS011;57135;51.992;4.476;2022-11-10T05:55:11;8.36;;;6.16;;
69837;SDS011;57135;51.992;4.476;2022-11-10T05:57:37;8.47;;;6.23;;
69837;SDS011;57135;51.992;4.476;2022-11-10T06:00:07;8.64;;;6.36;;
69837;SDS011;57135;51.992;4.476;2022-11-10T06:02:33;9.38;;;6.64;;
69837;SDS011;57135;51.992;4.476;2022-11-10T06:04:59;10.01;;;7.04;;
69837;SDS011;57135;51.992;4.476;2022-11-10T06:07:24;9.15;;;6.38;;
69837;SDS011;57135;51.992;4.476;2022-11-10T06:09:49;9.96;;;6.95;;
69837;SDS011;57135;51.992;4.476;2022-11-10T06:12:15;9.44;;;6.58;;
69837;SDS011;57135;51.992;4.476;2022-11-10T06:14:40;10.12;;;6.91;;
69837;SDS011;57135;51.992;4.476;2022-11-10T06:17:06;11.41;;;7.61;;
69837;SDS011;57135;51.992;4.476;2022-11-10T06:19:31;10.50;;;7.11;;
69837;SDS011;57135;51.992;4.476;2022-11-10T06:21:57;10.54;;;7.18;;
69837;SDS011;57135;51.992;4.476;2022-11-10T06:24:22;9.62;;;6.65;;
69837;SDS011;57135;51.992;4.476;2022-11-10T06:26:48;9.53;;;6.56;;
69837;SDS011;57135;51.992;4.476;2022-11-10T06:29:13;9.32;;;6.48;;
69837;SDS011;57135;51.992;4.476;2022-11-10T06:31:39;9.99;;;6.83;;
69837;SDS011;57135;51.992;4.476;2022-11-10T06:34:04;9.87;;;6.82;;
69837;SDS011;57135;51.992;4.476;2022-11-10T06:36:30;9.56;;;6.73;;
69837;SDS011;57135;51.992;4.476;2022-11-10T06:38:55;10.46;;;7.27;;
69837;SDS011;57135;51.992;4.476;2022-11-10T06:41:20;8.67;;;6.23;;
69837;SDS011;57135;51.992;4.476;2022-11-10T06:43:46;9.71;;;6.81;;
69837;SDS011;57135;51.992;4.476;2022-11-10T06:46:11;9.17;;;6.52;;
69837;SDS011;57135;51.992;4.476;2022-11-10T06:48:37;9.07;;;6.46;;
69837;SDS011;57135;51.992;4.476;2022-11-10T06:51:03;9.81;;;6.93;;
69837;SDS011;57135;51.992;4.476;2022-11-10T06:53:29;10.70;;;7.46;;
69837;SDS011;57135;51.992;4.476;2022-11-10T06:55:54;9.41;;;6.67;;
69837;SDS011;57135;51.992;4.476;2022-11-10T06:58:20;9.03;;;6.54;;
69837;SDS011;57135;51.992;4.476;2022-11-10T07:00:45;9.00;;;6.38;;
69837;SDS011;57135;51.992;4.476;2022-11-10T07:03:12;10.33;;;7.09;;
69837;SDS011;57135;51.992;4.476;2022-11-10T07:05:38;10.05;;;7.01;;
69837;SDS011;57135;51.992;4.476;2022-11-10T07:08:04;10.19;;;7.12;;
69837;SDS011;57135;51.992;4.476;2022-11-10T07:10:35;10.06;;;7.00;;
69837;SDS011;57135;51.992;4.476;2022-11-10T07:13:02;9.48;;;6.78;;
69837;SDS011;57135;51.992;4.476;2022-11-10T07:15:28;8.72;;;6.22;;
69837;SDS011;57135;51.992;4.476;2022-11-10T07:17:54;9.89;;;6.95;;
69837;SDS011;57135;51.992;4.476;2022-11-10T07:20:19;9.35;;;6.84;;
69837;SDS011;57135;51.992;4.476;2022-11-10T07:22:45;8.33;;;6.28;;
69837;SDS011;57135;51.992;4.476;2022-11-10T07:25:10;8.14;;;6.28;;
69837;SDS011;57135;51.992;4.476;2022-11-10T07:27:36;9.40;;;7.12;;
69837;SDS011;57135;51.992;4.476;2022-11-10T07:30:02;8.78;;;7.06;;
69837;SDS011;57135;51.992;4.476;2022-11-10T07:32:28;8.51;;;6.69;;
69837;SDS011;57135;51.992;4.476;2022-11-10T07:34:54;8.73;;;6.82;;
69837;SDS011;57135;51.992;4.476;2022-11-10T07:37:19;8.09;;;6.39;;
69837;SDS011;57135;51.992;4.476;2022-11-10T07:39:44;8.59;;;6.62;;
69837;SDS011;57135;51.992;4.476;2022-11-10T07:42:10;9.47;;;7.07;;
69837;SDS011;57135;51.992;4.476;2022-11-10T07:44:35;9.51;;;6.94;;
69837;SDS011;57135;51.992;4.476;2022-11-10T07:47:01;9.55;;;6.88;;
69837;SDS011;57135;51.992;4.476;2022-11-10T07:49:26;9.40;;;6.77;;
69837;SDS011;57135;51.992;4.476;2022-11-10T07:51:52;9.78;;;6.91;;
69837;SDS011;57135;51.992;4.476;2022-11-10T07:54:17;9.40;;;6.77;;
69837;SDS011;57135;51.992;4.476;2022-11-10T07:56:43;9.13;;;6.64;;
69837;SDS011;57135;51.992;4.476;2022-11-10T07:59:09;8.49;;;6.23;;
69837;SDS011;57135;51.992;4.476;2022-11-10T08:01:34;8.88;;;6.54;;
69837;SDS011;57135;51.992;4.476;2022-11-10T08:04:00;8.75;;;6.45;;
69837;SDS011;57135;51.992;4.476;2022-11-10T08:06:25;9.40;;;6.86;;
69837;SDS011;57135;51.992;4.476;2022-11-10T08:08:51;8.08;;;6.20;;
69837;SDS011;57135;51.992;4.476;2022-11-10T08:11:16;9.21;;;6.92;;
69837;SDS011;57135;51.992;4.476;2022-11-10T08:13:42;8.50;;;6.42;;
69837;SDS011;57135;51.992;4.476;2022-11-10T08:16:07;8.15;;;6.16;;
69837;SDS011;57135;51.992;4.476;2022-11-10T08:18:32;8.64;;;6.46;;
69837;SDS011;57135;51.992;4.476;2022-11-10T08:21:01;8.97;;;6.61;;
69837;SDS011;57135;51.992;4.476;2022-11-10T08:23:28;8.42;;;6.40;;
69837;SDS011;57135;51.992;4.476;2022-11-10T08:25:56;8.89;;;6.50;;
69837;SDS011;57135;51.992;4.476;2022-11-10T08:28:22;9.30;;;6.59;;
69837;SDS011;57135;51.992;4.476;2022-11-10T08:30:47;8.86;;;6.33;;
69837;SDS011;57135;51.992;4.476;2022-11-10T08:33:14;8.60;;;6.23;;
69837;SDS011;57135;51.992;4.476;2022-11-10T08:35:43;9.32;;;6.61;;
69837;SDS011;57135;51.992;4.476;2022-11-10T08:38:12;9.70;;;6.95;;
69837;SDS011;57135;51.992;4.476;2022-11-10T08:40:45;8.65;;;6.17;;
69837;SDS011;57135;51.992;4.476;2022-11-10T08:43:11;8.00;;;5.91;;
69837;SDS011;57135;51.992;4.476;2022-11-10T08:45:39;8.68;;;6.29;;
69837;SDS011;57135;51.992;4.476;2022-11-10T08:48:07;8.26;;;6.01;;
69837;SDS011;57135;51.992;4.476;2022-11-10T08:50:34;8.01;;;5.84;;
69837;SDS011;57135;51.992;4.476;2022-11-10T08:53:02;8.66;;;6.24;;
69837;SDS011;57135;51.992;4.476;2022-11-10T08:55:29;8.99;;;6.48;;
69837;SDS011;57135;51.992;4.476;2022-11-10T08:57:58;9.27;;;6.68;;
69837;SDS011;57135;51.992;4.476;2022-11-10T09:00:25;8.26;;;5.98;;
69837;SDS011;57135;51.992;4.476;2022-11-10T09:02:52;8.92;;;6.21;;
69837;SDS011;57135;51.992;4.476;2022-11-10T09:05:19;10.54;;;7.39;;
69837;SDS011;57135;51.992;4.476;2022-11-10T09:07:45;9.21;;;6.71;;
69837;SDS011;57135;51.992;4.476;2022-11-10T09:10:12;8.46;;;6.03;;
69837;SDS011;57135;51.992;4.476;2022-11-10T09:12:39;8.70;;;6.18;;
69837;SDS011;57135;51.992;4.476;2022-11-10T09:15:05;9.22;;;6.53;;
69837;SDS011;57135;51.992;4.476;2022-11-10T09:17:33;9.00;;;6.40;;
69837;SDS011;57135;51.992;4.476;2022-11-10T09:19:59;9.79;;;6.66;;
69837;SDS011;57135;51.992;4.476;2022-11-10T09:22:25;10.24;;;6.79;;
69837;SDS011;57135;51.992;4.476;2022-11-10T09:24:50;9.57;;;6.45;;
69837;SDS011;57135;51.992;4.476;2022-11-10T09:27:16;8.92;;;6.10;;
69837;SDS011;57135;51.992;4.476;2022-11-10T09:29:41;9.10;;;6.23;;
69837;SDS011;57135;51.992;4.476;2022-11-10T09:32:06;8.80;;;6.12;;
69837;SDS011;57135;51.992;4.476;2022-11-10T09:34:32;8.55;;;6.01;;
69837;SDS011;57135;51.992;4.476;2022-11-10T09:36:57;9.24;;;6.30;;
69837;SDS011;57135;51.992;4.476;2022-11-10T09:39:23;9.91;;;6.62;;
69837;SDS011;57135;51.992;4.476;2022-11-10T09:41:48;9.88;;;6.62;;
69837;SDS011;57135;51.992;4.476;2022-11-10T09:44:28;8.46;;;5.80;;
69837;SDS011;57135;51.992;4.476;2022-11-10T09:47:04;9.96;;;6.71;;
69837;SDS011;57135;51.992;4.476;2022-11-10T09:49:39;9.69;;;6.63;;
69837;SDS011;57135;51.992;4.476;2022-11-10T09:52:09;9.72;;;6.70;;
69837;SDS011;57135;51.992;4.476;2022-11-10T09:54:48;9.03;;;6.29;;
69837;SDS011;57135;51.992;4.476;2022-11-10T09:57:21;9.01;;;6.19;;
69837;SDS011;57135;51.992;4.476;2022-11-10T09:59:49;9.63;;;6.60;;
69837;SDS011;57135;51.992;4.476;2022-11-10T10:07:55;7.83;;;5.78;;
69837;SDS011;57135;51.992;4.476;2022-11-10T10:11:18;8.28;;;5.96;;
69837;SDS011;57135;51.992;4.476;2022-11-10T10:13:52;8.12;;;6.01;;
69837;SDS011;57135;51.992;4.476;2022-11-10T10:16:43;8.52;;;6.28;;
69837;SDS011;57135;51.992;4.476;2022-11-10T10:19:20;8.97;;;6.46;;
69837;SDS011;57135;51.992;4.476;2022-11-10T10:22:41;8.49;;;6.22;;
69837;SDS011;57135;51.992;4.476;2022-11-10T10:25:23;8.78;;;6.47;;
69837;SDS011;57135;51.992;4.476;2022-11-10T10:27:56;8.68;;;6.47;;
69837;SDS011;57135;51.992;4.476;2022-11-10T10:30:29;8.42;;;6.29;;
69837;SDS011;57135;51.992;4.476;2022-11-10T10:32:56;7.56;;;5.79;;
69837;SDS011;57135;51.992;4.476;2022-11-10T10:35:29;7.71;;;5.91;;
69837;SDS011;57135;51.992;4.476;2022-11-10T10:37:56;7.08;;;5.51;;
69837;SDS011;57135;51.992;4.476;2022-11-10T10:40:22;8.23;;;6.32;;
69837;SDS011;57135;51.992;4.476;2022-11-10T10:42:49;7.78;;;5.91;;
69837;SDS011;57135;51.992;4.476;2022-11-10T10:45:16;7.70;;;5.78;;
69837;SDS011;57135;51.992;4.476;2022-11-10T10:47:43;7.82;;;5.81;;
69837;SDS011;57135;51.992;4.476;2022-11-10T10:50:20;8.07;;;5.88;;
69837;SDS011;57135;51.992;4.476;2022-11-10T10:55:51;8.24;;;6.04;;
69837;SDS011;57135;51.992;4.476;2022-11-10T10:58:25;7.29;;;5.44;;
69837;SDS011;57135;51.992;4.476;2022-11-10T11:00:54;6.94;;;5.17;;
69837;SDS011;57135;51.992;4.476;2022-11-10T11:03:37;7.55;;;5.64;;
69837;SDS011;57135;51.992;4.476;2022-11-10T11:06:11;7.70;;;5.77;;
69837;SDS011;57135;51.992;4.476;2022-11-10T11:11:17;7.56;;;5.78;;
69837;SDS011;57135;51.992;4.476;2022-11-10T11:13:42;7.50;;;5.74;;
69837;SDS011;57135;51.992;4.476;2022-11-10T11:16:08;7.00;;;5.40;;
69837;SDS011;57135;51.992;4.476;2022-11-10T11:18:37;8.33;;;6.24;;
69837;SDS011;57135;51.992;4.476;2022-11-10T11:26:21;8.44;;;6.20;;
69837;SDS011;57135;51.992;4.476;2022-11-10T11:34:42;7.82;;;5.81;;
69837;SDS011;57135;51.992;4.476;2022-11-10T11:37:49;7.71;;;5.76;;
69837;SDS011;57135;51.992;4.476;2022-11-10T11:43:23;6.81;;;5.24;;
69837;SDS011;57135;51.992;4.476;2022-11-10T11:46:15;7.50;;;5.65;;
69837;SDS011;57135;51.992;4.476;2022-11-10T11:52:16;6.98;;;5.34;;
69837;SDS011;57135;51.992;4.476;2022-11-10T12:00:21;6.96;;;5.26;;
69837;SDS011;57135;51.992;4.476;2022-11-10T12:06:14;6.71;;;5.13;;
69837;SDS011;57135;51.992;4.476;2022-11-10T12:08:56;6.57;;;5.06;;
69837;SDS011;57135;51.992;4.476;2022-11-10T12:11:37;6.85;;;5.18;;
69837;SDS011;57135;51.992;4.476;2022-11-10T12:14:25;8.04;;;6.03;;
69837;SDS011;57135;51.992;4.476;2022-11-10T12:17:12;6.74;;;5.27;;
69837;SDS011;57135;51.992;4.476;2022-11-10T12:22:42;6.92;;;5.26;;
69837;SDS011;57135;51.992;4.476;2022-11-10T12:27:49;7.18;;;5.41;;
69837;SDS011;57135;51.992;4.476;2022-11-10T12:30:46;6.98;;;5.30;;
69837;SDS011;57135;51.992;4.476;2022-11-10T12:35:54;6.18;;;4.88;;
69837;SDS011;57135;51.992;4.476;2022-11-10T12:38:23;6.45;;;5.08;;
69837;SDS011;57135;51.992;4.476;2022-11-10T12:41:13;6.74;;;5.41;;
69837;SDS011;57135;51.992;4.476;2022-11-10T12:44:01;5.84;;;4.67;;
69837;SDS011;57135;51.992;4.476;2022-11-10T12:46:36;6.09;;;4.73;;
69837;SDS011;57135;51.992;4.476;2022-11-10T12:54:46;6.80;;;5.09;;
69837;SDS011;57135;51.992;4.476;2022-11-10T12:57:22;7.09;;;5.41;;
69837;SDS011;57135;51.992;4.476;2022-11-10T13:00:04;6.80;;;5.25;;
69837;SDS011;57135;51.992;4.476;2022-11-10T13:02:39;7.16;;;5.57;;
69837;SDS011;57135;51.992;4.476;2022-11-10T13:05:09;6.56;;;5.05;;
69837;SDS011;57135;51.992;4.476;2022-11-10T13:07:46;6.90;;;5.14;;
69837;SDS011;57135;51.992;4.476;2022-11-10T13:10:19;6.71;;;5.01;;
69837;SDS011;57135;51.992;4.476;2022-11-10T13:17:59;6.22;;;4.87;;
69837;SDS011;57135;51.992;4.476;2022-11-10T13:23:19;7.52;;;5.61;;
69837;SDS011;57135;51.992;4.476;2022-11-10T13:25:55;6.54;;;4.98;;
69837;SDS011;57135;51.992;4.476;2022-11-10T13:36:48;6.19;;;4.83;;
69837;SDS011;57135;51.992;4.476;2022-11-10T13:41:49;6.91;;;5.31;;
69837;SDS011;57135;51.992;4.476;2022-11-10T13:44:38;5.81;;;4.52;;
69837;SDS011;57135;51.992;4.476;2022-11-10T13:50:19;5.61;;;4.49;;
69837;SDS011;57135;51.992;4.476;2022-11-10T13:53:05;5.65;;;4.40;;
69837;SDS011;57135;51.992;4.476;2022-11-10T13:58:34;6.01;;;4.46;;
69837;SDS011;57135;51.992;4.476;2022-11-10T14:01:21;5.79;;;4.34;;
69837;SDS011;57135;51.992;4.476;2022-11-10T14:03:52;5.80;;;4.35;;
69837;SDS011;57135;51.992;4.476;2022-11-10T14:06:25;6.44;;;4.67;;
69837;SDS011;57135;51.992;4.476;2022-11-10T14:08:58;5.96;;;4.32;;
69837;SDS011;57135;51.992;4.476;2022-11-10T14:11:39;5.57;;;4.16;;
69837;SDS011;57135;51.992;4.476;2022-11-10T14:14:19;5.99;;;4.46;;
69837;SDS011;57135;51.992;4.476;2022-11-10T14:16:49;6.26;;;4.60;;
69837;SDS011;57135;51.992;4.476;2022-11-10T14:21:49;6.35;;;4.64;;
69837;SDS011;57135;51.992;4.476;2022-11-10T14:26:48;6.51;;;4.84;;
69837;SDS011;57135;51.992;4.476;2022-11-10T14:29:20;6.50;;;4.73;;
69837;SDS011;57135;51.992;4.476;2022-11-10T14:31:52;6.99;;;5.16;;
69837;SDS011;57135;51.992;4.476;2022-11-10T14:34:18;6.85;;;5.07;;
69837;SDS011;57135;51.992;4.476;2022-11-10T14:36:50;7.03;;;5.26;;
69837;SDS011;57135;51.992;4.476;2022-11-10T14:39:29;7.19;;;5.36;;
69837;SDS011;57135;51.992;4.476;2022-11-10T14:41:58;7.89;;;6.00;;
69837;SDS011;57135;51.992;4.476;2022-11-10T14:44:29;6.97;;;5.38;;
69837;SDS011;57135;51.992;4.476;2022-11-10T14:46:55;6.43;;;5.03;;
69837;SDS011;57135;51.992;4.476;2022-11-10T14:49:23;6.19;;;5.00;;
69837;SDS011;57135;51.992;4.476;2022-11-10T14:51:50;6.00;;;4.97;;
69837;SDS011;57135;51.992;4.476;2022-11-10T14:54:21;5.80;;;4.90;;
69837;SDS011;57135;51.992;4.476;2022-11-10T14:56:50;5.95;;;4.86;;
69837;SDS011;57135;51.992;4.476;2022-11-10T14:59:16;6.20;;;5.02;;
69837;SDS011;57135;51.992;4.476;2022-11-10T15:01:52;6.11;;;4.95;;
69837;SDS011;57135;51.992;4.476;2022-11-10T15:04:21;5.74;;;4.70;;
69837;SDS011;57135;51.992;4.476;2022-11-10T15:06:51;5.39;;;4.46;;
69837;SDS011;57135;51.992;4.476;2022-11-10T15:09:22;5.23;;;4.32;;
69837;SDS011;57135;51.992;4.476;2022-11-10T15:11:52;5.83;;;4.83;;
69837;SDS011;57135;51.992;4.476;2022-11-10T15:17:01;5.44;;;4.54;;
69837;SDS011;57135;51.992;4.476;2022-11-10T15:21:54;5.65;;;4.68;;
69837;SDS011;57135;51.992;4.476;2022-11-10T15:24:25;6.06;;;4.98;;
69837;SDS011;57135;51.992;4.476;2022-11-10T15:26:51;5.74;;;4.77;;
69837;SDS011;57135;51.992;4.476;2022-11-10T15:29:17;5.76;;;4.90;;
69837;SDS011;57135;51.992;4.476;2022-11-10T15:31:47;6.05;;;5.13;;
69837;SDS011;57135;51.992;4.476;2022-11-10T15:34:28;5.97;;;4.96;;
69837;SDS011;57135;51.992;4.476;2022-11-10T15:37:09;5.52;;;4.70;;
69837;SDS011;57135;51.992;4.476;2022-11-10T15:39:42;4.89;;;4.27;;
69837;SDS011;57135;51.992;4.476;2022-11-10T15:42:12;4.67;;;4.12;;
69837;SDS011;57135;51.992;4.476;2022-11-10T15:44:45;5.60;;;4.69;;
69837;SDS011;57135;51.992;4.476;2022-11-10T15:47:17;5.87;;;4.88;;
69837;SDS011;57135;51.992;4.476;2022-11-10T15:49:44;5.11;;;4.30;;
69837;SDS011;57135;51.992;4.476;2022-11-10T15:52:11;4.88;;;4.22;;
69837;SDS011;57135;51.992;4.476;2022-11-10T15:54:40;4.51;;;3.93;;
69837;SDS011;57135;51.992;4.476;2022-11-10T15:57:13;4.63;;;4.04;;
69837;SDS011;57135;51.992;4.476;2022-11-10T15:59:40;4.94;;;4.23;;
69837;SDS011;57135;51.992;4.476;2022-11-10T16:02:22;5.94;;;5.04;;
69837;SDS011;57135;51.992;4.476;2022-11-10T16:04:49;5.49;;;4.68;;
69837;SDS011;57135;51.992;4.476;2022-11-10T16:07:16;6.13;;;5.16;;
69837;SDS011;57135;51.992;4.476;2022-11-10T16:09:42;5.22;;;4.43;;
69837;SDS011;57135;51.992;4.476;2022-11-10T16:12:10;5.41;;;4.55;;
69837;SDS011;57135;51.992;4.476;2022-11-10T16:14:39;5.54;;;4.56;;
69837;SDS011;57135;51.992;4.476;2022-11-10T16:17:08;5.15;;;4.37;;
69837;SDS011;57135;51.992;4.476;2022-11-10T16:19:35;4.75;;;4.13;;
69837;SDS011;57135;51.992;4.476;2022-11-10T16:22:00;4.56;;;4.02;;
69837;SDS011;57135;51.992;4.476;2022-11-10T16:24:26;4.51;;;4.00;;
69837;SDS011;57135;51.992;4.476;2022-11-10T16:26:51;4.68;;;4.12;;
69837;SDS011;57135;51.992;4.476;2022-11-10T16:29:17;4.71;;;4.28;;
69837;SDS011;57135;51.992;4.476;2022-11-10T16:31:44;4.33;;;3.99;;
69837;SDS011;57135;51.992;4.476;2022-11-10T16:34:11;4.57;;;4.15;;